sensor_id;sensor_type;location;lat;lon;timestamp;pressure;altitude;pressure_sealevel;temperature;humidity
57568;BME280;43403;51.948;5.922;2022-07-04T00:01:30;101978.91;;;16.99;100.00
57568;BME280;43403;51.948;5.922;2022-07-04T00:03:57;101983.84;;;16.94;100.00
57568;BME280;43403;51.948;5.922;2022-07-04T00:06:23;101974.69;;;16.89;100.00
57568;BME280;43403;51.948;5.922;2022-07-04T00:08:50;101983.31;;;16.91;100.00
57568;BME280;43403;51.948;5.922;2022-07-04T00:11:16;101982.66;;;16.89;100.00
57568;BME280;43403;51.948;5.922;2022-07-04T00:13:42;101983.56;;;16.79;100.00
57568;BME280;43403;51.948;5.922;2022-07-04T00:16:09;101977.25;;;16.72;100.00
57568;BME280;43403;51.948;5.922;2022-07-04T00:18:35;101975.25;;;16.66;100.00
57568;BME280;43403;51.948;5.922;2022-07-04T00:21:02;101985.66;;;16.68;100.00
57568;BME280;43403;51.948;5.922;2022-07-04T00:23:28;101979.69;;;16.66;100.00
57568;BME280;43403;51.948;5.922;2022-07-04T00:25:55;101975.25;;;16.66;100.00
57568;BME280;43403;51.948;5.922;2022-07-04T00:28:21;101967.63;;;16.71;100.00
57568;BME280;43403;51.948;5.922;2022-07-04T00:30:48;101976.25;;;16.73;100.00
57568;BME280;43403;51.948;5.922;2022-07-04T00:33:14;101969.63;;;16.69;100.00
57568;BME280;43403;51.948;5.922;2022-07-04T00:35:42;101967.91;;;16.60;100.00
57568;BME280;43403;51.948;5.922;2022-07-04T00:38:09;101969.41;;;16.54;100.00
57568;BME280;43403;51.948;5.922;2022-07-04T00:40:35;101970.00;;;16.48;100.00
57568;BME280;43403;51.948;5.922;2022-07-04T00:43:03;101973.28;;;16.42;100.00
57568;BME280;43403;51.948;5.922;2022-07-04T00:45:30;101970.97;;;16.39;100.00
57568;BME280;43403;51.948;5.922;2022-07-04T00:47:56;101975.22;;;16.32;100.00
57568;BME280;43403;51.948;5.922;2022-07-04T00:50:24;101974.25;;;16.33;100.00
57568;BME280;43403;51.948;5.922;2022-07-04T00:52:51;101982.78;;;16.27;100.00
57568;BME280;43403;51.948;5.922;2022-07-04T00:55:19;101980.91;;;16.19;100.00
57568;BME280;43403;51.948;5.922;2022-07-04T00:57:47;101984.66;;;16.08;100.00
57568;BME280;43403;51.948;5.922;2022-07-04T01:00:14;101987.81;;;16.12;100.00
57568;BME280;43403;51.948;5.922;2022-07-04T01:02:40;101990.47;;;16.12;100.00
57568;BME280;43403;51.948;5.922;2022-07-04T01:05:07;101977.69;;;16.07;100.00
57568;BME280;43403;51.948;5.922;2022-07-04T01:07:35;101978.97;;;16.03;100.00
57568;BME280;43403;51.948;5.922;2022-07-04T01:10:02;101981.94;;;16.00;100.00
57568;BME280;43403;51.948;5.922;2022-07-04T01:12:30;101976.94;;;15.97;100.00
57568;BME280;43403;51.948;5.922;2022-07-04T01:14:57;101979.25;;;15.92;100.00
57568;BME280;43403;51.948;5.922;2022-07-04T01:17:23;101981.66;;;15.85;100.00
57568;BME280;43403;51.948;5.922;2022-07-04T01:19:52;101983.63;;;15.83;100.00
57568;BME280;43403;51.948;5.922;2022-07-04T01:22:19;101977.81;;;15.79;100.00
57568;BME280;43403;51.948;5.922;2022-07-04T01:24:47;101978.47;;;15.81;100.00
57568;BME280;43403;51.948;5.922;2022-07-04T01:27:15;101971.91;;;15.86;100.00
57568;BME280;43403;51.948;5.922;2022-07-04T01:29:41;101963.47;;;15.82;100.00
57568;BME280;43403;51.948;5.922;2022-07-04T01:32:09;101969.19;;;15.77;100.00
57568;BME280;43403;51.948;5.922;2022-07-04T01:34:36;101960.19;;;15.70;100.00
57568;BME280;43403;51.948;5.922;2022-07-04T01:37:09;101959.81;;;15.65;100.00
57568;BME280;43403;51.948;5.922;2022-07-04T01:39:35;101958.31;;;15.62;100.00
57568;BME280;43403;51.948;5.922;2022-07-04T01:42:02;101960.47;;;15.67;100.00
57568;BME280;43403;51.948;5.922;2022-07-04T01:44:28;101953.38;;;15.68;100.00
57568;BME280;43403;51.948;5.922;2022-07-04T01:46:55;101948.06;;;15.68;100.00
57568;BME280;43403;51.948;5.922;2022-07-04T01:49:21;101951.03;;;15.65;100.00
57568;BME280;43403;51.948;5.922;2022-07-04T01:51:49;101953.00;;;15.62;100.00
57568;BME280;43403;51.948;5.922;2022-07-04T01:54:16;101963.81;;;15.51;100.00
57568;BME280;43403;51.948;5.922;2022-07-04T01:56:43;101950.88;;;15.48;100.00
57568;BME280;43403;51.948;5.922;2022-07-04T01:59:09;101945.91;;;15.45;100.00
57568;BME280;43403;51.948;5.922;2022-07-04T02:01:35;101946.53;;;15.39;100.00
57568;BME280;43403;51.948;5.922;2022-07-04T02:04:05;101947.50;;;15.38;100.00
57568;BME280;43403;51.948;5.922;2022-07-04T02:06:32;101952.09;;;15.36;100.00
57568;BME280;43403;51.948;5.922;2022-07-04T02:08:59;101947.13;;;15.33;100.00
57568;BME280;43403;51.948;5.922;2022-07-04T02:11:44;101956.16;;;15.30;100.00
57568;BME280;43403;51.948;5.922;2022-07-04T02:14:31;101946.41;;;15.31;100.00
57568;BME280;43403;51.948;5.922;2022-07-04T02:16:58;101949.53;;;15.26;100.00
57568;BME280;43403;51.948;5.922;2022-07-04T02:19:24;101939.53;;;15.20;100.00
57568;BME280;43403;51.948;5.922;2022-07-04T02:21:51;101941.38;;;15.19;100.00
57568;BME280;43403;51.948;5.922;2022-07-04T02:24:18;101935.09;;;15.20;100.00
57568;BME280;43403;51.948;5.922;2022-07-04T02:26:47;101937.88;;;15.19;100.00
57568;BME280;43403;51.948;5.922;2022-07-04T02:29:13;101932.06;;;15.15;100.00
57568;BME280;43403;51.948;5.922;2022-07-04T02:31:40;101935.00;;;15.12;100.00
57568;BME280;43403;51.948;5.922;2022-07-04T02:34:07;101932.13;;;15.06;100.00
57568;BME280;43403;51.948;5.922;2022-07-04T02:36:33;101927.81;;;15.05;100.00
57568;BME280;43403;51.948;5.922;2022-07-04T02:39:00;101928.13;;;15.01;100.00
57568;BME280;43403;51.948;5.922;2022-07-04T02:41:27;101929.38;;;14.97;100.00
57568;BME280;43403;51.948;5.922;2022-07-04T02:43:54;101930.22;;;14.98;100.00
57568;BME280;43403;51.948;5.922;2022-07-04T02:46:20;101927.06;;;14.94;100.00
57568;BME280;43403;51.948;5.922;2022-07-04T02:48:47;101932.47;;;14.93;100.00
57568;BME280;43403;51.948;5.922;2022-07-04T02:51:13;101934.28;;;14.92;100.00
57568;BME280;43403;51.948;5.922;2022-07-04T02:53:40;101933.75;;;14.89;100.00
57568;BME280;43403;51.948;5.922;2022-07-04T02:56:06;101933.75;;;14.89;100.00
57568;BME280;43403;51.948;5.922;2022-07-04T02:58:33;101939.31;;;14.86;100.00
57568;BME280;43403;51.948;5.922;2022-07-04T03:01:00;101939.31;;;14.86;100.00
57568;BME280;43403;51.948;5.922;2022-07-04T03:03:27;101951.44;;;14.88;100.00
57568;BME280;43403;51.948;5.922;2022-07-04T03:05:54;101938.50;;;14.85;100.00
57568;BME280;43403;51.948;5.922;2022-07-04T03:08:20;101945.88;;;14.81;100.00
57568;BME280;43403;51.948;5.922;2022-07-04T03:10:49;101950.47;;;14.79;100.00
57568;BME280;43403;51.948;5.922;2022-07-04T03:13:16;101959.41;;;14.78;100.00
57568;BME280;43403;51.948;5.922;2022-07-04T03:15:42;101949.78;;;14.77;100.00
57568;BME280;43403;51.948;5.922;2022-07-04T03:18:09;101964.00;;;14.76;100.00
57568;BME280;43403;51.948;5.922;2022-07-04T03:20:35;101962.63;;;14.72;100.00
57568;BME280;43403;51.948;5.922;2022-07-04T03:23:02;101963.72;;;14.70;100.00
57568;BME280;43403;51.948;5.922;2022-07-04T03:25:29;101961.41;;;14.67;100.00
57568;BME280;43403;51.948;5.922;2022-07-04T03:27:55;101965.13;;;14.64;100.00
57568;BME280;43403;51.948;5.922;2022-07-04T03:30:22;101965.13;;;14.64;100.00
57568;BME280;43403;51.948;5.922;2022-07-04T03:32:48;101972.22;;;14.63;100.00
57568;BME280;43403;51.948;5.922;2022-07-04T03:35:15;101971.53;;;14.61;100.00
57568;BME280;43403;51.948;5.922;2022-07-04T03:37:41;101970.03;;;14.59;100.00
57568;BME280;43403;51.948;5.922;2022-07-04T03:40:08;101965.44;;;14.61;100.00
57568;BME280;43403;51.948;5.922;2022-07-04T03:42:35;101975.31;;;14.59;100.00
57568;BME280;43403;51.948;5.922;2022-07-04T03:45:03;101975.19;;;14.60;100.00
57568;BME280;43403;51.948;5.922;2022-07-04T03:47:29;101976.56;;;14.55;100.00
57568;BME280;43403;51.948;5.922;2022-07-04T03:49:55;101973.50;;;14.59;100.00
57568;BME280;43403;51.948;5.922;2022-07-04T03:52:22;101975.47;;;14.57;100.00
57568;BME280;43403;51.948;5.922;2022-07-04T03:54:48;101986.84;;;14.58;100.00
57568;BME280;43403;51.948;5.922;2022-07-04T03:57:15;101991.03;;;14.60;100.00
57568;BME280;43403;51.948;5.922;2022-07-04T03:59:41;101991.72;;;14.62;100.00
57568;BME280;43403;51.948;5.922;2022-07-04T04:02:08;101997.81;;;14.63;100.00
57568;BME280;43403;51.948;5.922;2022-07-04T04:04:34;101996.69;;;14.66;100.00
57568;BME280;43403;51.948;5.922;2022-07-04T04:07:19;102002.66;;;14.68;100.00
57568;BME280;43403;51.948;5.922;2022-07-04T04:09:46;102005.28;;;14.68;100.00
57568;BME280;43403;51.948;5.922;2022-07-04T04:12:12;102011.00;;;14.73;100.00
57568;BME280;43403;51.948;5.922;2022-07-04T04:14:38;102015.97;;;14.76;100.00
57568;BME280;43403;51.948;5.922;2022-07-04T04:17:05;102013.31;;;14.76;100.00
57568;BME280;43403;51.948;5.922;2022-07-04T04:19:31;102014.56;;;14.81;100.00
57568;BME280;43403;51.948;5.922;2022-07-04T04:21:58;102006.50;;;14.83;100.00
57568;BME280;43403;51.948;5.922;2022-07-04T04:24:25;102010.50;;;14.87;100.00
57568;BME280;43403;51.948;5.922;2022-07-04T04:26:51;102010.38;;;14.89;100.00
57568;BME280;43403;51.948;5.922;2022-07-04T04:29:18;102017.47;;;14.88;100.00
57568;BME280;43403;51.948;5.922;2022-07-04T04:31:44;102014.97;;;14.87;100.00
57568;BME280;43403;51.948;5.922;2022-07-04T04:34:11;102017.56;;;14.96;100.00
57568;BME280;43403;51.948;5.922;2022-07-04T04:36:37;102012.41;;;14.95;100.00
57568;BME280;43403;51.948;5.922;2022-07-04T04:39:04;102008.94;;;14.94;100.00
57568;BME280;43403;51.948;5.922;2022-07-04T04:41:30;102017.03;;;14.93;100.00
57568;BME280;43403;51.948;5.922;2022-07-04T04:43:56;102012.00;;;14.99;100.00
57568;BME280;43403;51.948;5.922;2022-07-04T04:46:23;102017.56;;;14.96;100.00
57568;BME280;43403;51.948;5.922;2022-07-04T04:48:50;102008.50;;;14.99;100.00
57568;BME280;43403;51.948;5.922;2022-07-04T04:51:16;102000.88;;;14.96;100.00
57568;BME280;43403;51.948;5.922;2022-07-04T04:53:43;101998.06;;;14.97;100.00
57568;BME280;43403;51.948;5.922;2022-07-04T04:56:09;102000.16;;;15.03;100.00
57568;BME280;43403;51.948;5.922;2022-07-04T04:58:36;102003.03;;;15.10;100.00
57568;BME280;43403;51.948;5.922;2022-07-04T05:01:02;101992.84;;;15.15;100.00
57568;BME280;43403;51.948;5.922;2022-07-04T05:03:49;102001.31;;;15.19;100.00
57568;BME280;43403;51.948;5.922;2022-07-04T05:06:15;101998.50;;;15.20;100.00
57568;BME280;43403;51.948;5.922;2022-07-04T05:08:42;101995.88;;;15.20;100.00
57568;BME280;43403;51.948;5.922;2022-07-04T05:11:08;101999.59;;;15.28;100.00
57568;BME280;43403;51.948;5.922;2022-07-04T05:13:35;101987.06;;;15.30;100.00
57568;BME280;43403;51.948;5.922;2022-07-04T05:16:02;101993.72;;;15.34;100.00
57568;BME280;43403;51.948;5.922;2022-07-04T05:18:28;102000.06;;;15.41;100.00
57568;BME280;43403;51.948;5.922;2022-07-04T05:20:55;101994.47;;;15.44;100.00
57568;BME280;43403;51.948;5.922;2022-07-04T05:23:21;101996.00;;;15.47;100.00
57568;BME280;43403;51.948;5.922;2022-07-04T05:25:48;101994.03;;;15.49;100.00
57568;BME280;43403;51.948;5.922;2022-07-04T05:28:14;101999.41;;;15.57;100.00
57568;BME280;43403;51.948;5.922;2022-07-04T05:30:41;102008.84;;;15.59;100.00
57568;BME280;43403;51.948;5.922;2022-07-04T05:33:08;102006.72;;;15.63;100.00
57568;BME280;43403;51.948;5.922;2022-07-04T05:35:35;102013.91;;;15.71;100.00
57568;BME280;43403;51.948;5.922;2022-07-04T05:38:02;102011.28;;;15.71;100.00
57568;BME280;43403;51.948;5.922;2022-07-04T05:40:28;102021.56;;;15.74;100.00
57568;BME280;43403;51.948;5.922;2022-07-04T05:42:55;102025.41;;;15.79;100.00
57568;BME280;43403;51.948;5.922;2022-07-04T05:45:22;102026.97;;;15.82;100.00
57568;BME280;43403;51.948;5.922;2022-07-04T05:47:49;102024.81;;;15.86;100.00
57568;BME280;43403;51.948;5.922;2022-07-04T05:50:15;102028.06;;;15.97;100.00
57568;BME280;43403;51.948;5.922;2022-07-04T05:52:42;102028.16;;;16.06;100.00
57568;BME280;43403;51.948;5.922;2022-07-04T05:55:08;102035.00;;;16.16;100.00
57568;BME280;43403;51.948;5.922;2022-07-04T05:57:35;102040.00;;;16.19;100.00
57568;BME280;43403;51.948;5.922;2022-07-04T06:00:07;102043.00;;;16.25;100.00
57568;BME280;43403;51.948;5.922;2022-07-04T06:02:33;102043.84;;;16.25;100.00
57568;BME280;43403;51.948;5.922;2022-07-04T06:05:00;102033.25;;;16.25;100.00
57568;BME280;43403;51.948;5.922;2022-07-04T06:07:27;102032.94;;;16.28;100.00
57568;BME280;43403;51.948;5.922;2022-07-04T06:09:53;102034.66;;;16.37;100.00
57568;BME280;43403;51.948;5.922;2022-07-04T06:12:19;102036.31;;;16.38;100.00
57568;BME280;43403;51.948;5.922;2022-07-04T06:14:46;102042.13;;;16.42;100.00
57568;BME280;43403;51.948;5.922;2022-07-04T06:17:12;102031.78;;;16.49;100.00
57568;BME280;43403;51.948;5.922;2022-07-04T06:19:39;102036.47;;;16.63;100.00
57568;BME280;43403;51.948;5.922;2022-07-04T06:22:05;102034.88;;;16.70;100.00
57568;BME280;43403;51.948;5.922;2022-07-04T06:24:32;102035.59;;;16.80;100.00
57568;BME280;43403;51.948;5.922;2022-07-04T06:26:58;102031.19;;;16.89;100.00
57568;BME280;43403;51.948;5.922;2022-07-04T06:29:25;102025.81;;;16.81;100.00
57568;BME280;43403;51.948;5.922;2022-07-04T06:31:51;102029.63;;;16.78;100.00
57568;BME280;43403;51.948;5.922;2022-07-04T06:34:18;102033.50;;;16.84;100.00
57568;BME280;43403;51.948;5.922;2022-07-04T06:37:03;102028.06;;;16.94;100.00
57568;BME280;43403;51.948;5.922;2022-07-04T06:39:29;102031.94;;;17.08;100.00
57568;BME280;43403;51.948;5.922;2022-07-04T06:41:56;102031.81;;;17.17;100.00
57568;BME280;43403;51.948;5.922;2022-07-04T06:44:22;102029.19;;;17.26;100.00
57568;BME280;43403;51.948;5.922;2022-07-04T06:46:49;102035.97;;;17.36;100.00
57568;BME280;43403;51.948;5.922;2022-07-04T06:49:17;102030.53;;;17.46;100.00
57568;BME280;43403;51.948;5.922;2022-07-04T06:51:43;102032.56;;;17.52;100.00
57568;BME280;43403;51.948;5.922;2022-07-04T06:54:10;102030.09;;;17.67;100.00
57568;BME280;43403;51.948;5.922;2022-07-04T06:56:36;102031.25;;;17.56;100.00
57568;BME280;43403;51.948;5.922;2022-07-04T06:59:02;102037.22;;;17.58;100.00
57568;BME280;43403;51.948;5.922;2022-07-04T07:01:31;102039.22;;;17.56;100.00
57568;BME280;43403;51.948;5.922;2022-07-04T07:03:57;102026.25;;;17.62;100.00
57568;BME280;43403;51.948;5.922;2022-07-04T07:06:24;102011.00;;;17.72;100.00
57568;BME280;43403;51.948;5.922;2022-07-04T07:08:50;102010.38;;;17.78;100.00
57568;BME280;43403;51.948;5.922;2022-07-04T07:11:17;102014.53;;;17.97;100.00
57568;BME280;43403;51.948;5.922;2022-07-04T07:13:47;102011.06;;;17.96;100.00
57568;BME280;43403;51.948;5.922;2022-07-04T07:16:14;102020.03;;;18.12;100.00
57568;BME280;43403;51.948;5.922;2022-07-04T07:18:41;102029.66;;;18.21;100.00
57568;BME280;43403;51.948;5.922;2022-07-04T07:21:07;102023.00;;;18.25;100.00
57568;BME280;43403;51.948;5.922;2022-07-04T07:23:34;102031.63;;;18.35;100.00
57568;BME280;43403;51.948;5.922;2022-07-04T07:26:03;102022.47;;;18.46;100.00
57568;BME280;43403;51.948;5.922;2022-07-04T07:28:29;102019.97;;;18.53;100.00
57568;BME280;43403;51.948;5.922;2022-07-04T07:30:55;102022.44;;;18.63;100.00
57568;BME280;43403;51.948;5.922;2022-07-04T07:33:22;102027.72;;;18.71;100.00
57568;BME280;43403;51.948;5.922;2022-07-04T07:35:48;102026.53;;;18.73;100.00
57568;BME280;43403;51.948;5.922;2022-07-04T07:38:15;102021.06;;;18.83;100.00
57568;BME280;43403;51.948;5.922;2022-07-04T07:40:41;102015.91;;;18.82;100.00
57568;BME280;43403;51.948;5.922;2022-07-04T07:43:08;102019.06;;;18.85;100.00
57568;BME280;43403;51.948;5.922;2022-07-04T07:45:34;102017.59;;;18.83;100.00
57568;BME280;43403;51.948;5.922;2022-07-04T07:48:02;102024.38;;;18.77;100.00
57568;BME280;43403;51.948;5.922;2022-07-04T07:50:28;102007.28;;;18.71;100.00
57568;BME280;43403;51.948;5.922;2022-07-04T07:52:55;101998.81;;;18.76;100.00
57568;BME280;43403;51.948;5.922;2022-07-04T07:55:21;102001.16;;;18.71;100.00
57568;BME280;43403;51.948;5.922;2022-07-04T07:57:47;101995.34;;;18.67;100.00
57568;BME280;43403;51.948;5.922;2022-07-04T08:00:15;101991.31;;;18.80;100.00
57568;BME280;43403;51.948;5.922;2022-07-04T08:02:58;102004.78;;;18.78;100.00
57568;BME280;43403;51.948;5.922;2022-07-04T08:05:43;102000.16;;;18.80;100.00
57568;BME280;43403;51.948;5.922;2022-07-04T08:08:09;102001.75;;;18.89;100.00
57568;BME280;43403;51.948;5.922;2022-07-04T08:10:37;102005.88;;;19.00;100.00
57568;BME280;43403;51.948;5.922;2022-07-04T08:13:04;102014.94;;;19.14;100.00
57568;BME280;43403;51.948;5.922;2022-07-04T08:15:32;102015.72;;;19.31;100.00
57568;BME280;43403;51.948;5.922;2022-07-04T08:17:59;102019.31;;;19.38;100.00
57568;BME280;43403;51.948;5.922;2022-07-04T08:20:25;102019.13;;;19.40;100.00
57568;BME280;43403;51.948;5.922;2022-07-04T08:22:52;102022.22;;;19.51;100.00
57568;BME280;43403;51.948;5.922;2022-07-04T08:25:18;102020.41;;;19.75;100.00
57568;BME280;43403;51.948;5.922;2022-07-04T08:27:46;102030.34;;;20.04;100.00
57568;BME280;43403;51.948;5.922;2022-07-04T08:30:12;102018.22;;;20.17;100.00
57568;BME280;43403;51.948;5.922;2022-07-04T08:32:39;102023.78;;;20.30;100.00
57568;BME280;43403;51.948;5.922;2022-07-04T08:35:07;102024.72;;;20.37;100.00
57568;BME280;43403;51.948;5.922;2022-07-04T08:37:33;102021.94;;;20.30;100.00
57568;BME280;43403;51.948;5.922;2022-07-04T08:40:00;102022.97;;;20.44;100.00
57568;BME280;43403;51.948;5.922;2022-07-04T08:42:29;102026.72;;;20.50;100.00
57568;BME280;43403;51.948;5.922;2022-07-04T08:45:00;102034.72;;;20.50;100.00
57568;BME280;43403;51.948;5.922;2022-07-04T08:47:28;102033.50;;;20.61;100.00
57568;BME280;43403;51.948;5.922;2022-07-04T08:49:58;102041.34;;;20.54;100.00
57568;BME280;43403;51.948;5.922;2022-07-04T08:52:35;102039.44;;;20.78;100.00
57568;BME280;43403;51.948;5.922;2022-07-04T08:55:04;102037.81;;;20.77;100.00
57568;BME280;43403;51.948;5.922;2022-07-04T08:58:09;102041.28;;;20.77;100.00
57568;BME280;43403;51.948;5.922;2022-07-04T09:01:07;102034.53;;;21.11;100.00
57568;BME280;43403;51.948;5.922;2022-07-04T09:03:34;102040.59;;;21.35;100.00
57568;BME280;43403;51.948;5.922;2022-07-04T09:06:01;102036.78;;;21.44;100.00
57568;BME280;43403;51.948;5.922;2022-07-04T09:08:28;102027.66;;;21.38;100.00
57568;BME280;43403;51.948;5.922;2022-07-04T09:10:54;102033.28;;;21.58;100.00
57568;BME280;43403;51.948;5.922;2022-07-04T09:13:21;102031.25;;;21.60;100.00
57568;BME280;43403;51.948;5.922;2022-07-04T09:15:49;102029.53;;;21.74;100.00
57568;BME280;43403;51.948;5.922;2022-07-04T09:18:28;102031.28;;;21.67;100.00
57568;BME280;43403;51.948;5.922;2022-07-04T09:20:58;102031.41;;;21.59;100.00
57568;BME280;43403;51.948;5.922;2022-07-04T09:23:29;102026.59;;;21.69;100.00
57568;BME280;43403;51.948;5.922;2022-07-04T09:26:16;102030.13;;;21.98;100.00
57568;BME280;43403;51.948;5.922;2022-07-04T09:28:45;102026.00;;;22.23;100.00
57568;BME280;43403;51.948;5.922;2022-07-04T09:31:21;102032.03;;;22.04;100.00
57568;BME280;43403;51.948;5.922;2022-07-04T09:33:53;102026.75;;;21.89;100.00
57568;BME280;43403;51.948;5.922;2022-07-04T09:36:25;102030.47;;;21.88;100.00
57568;BME280;43403;51.948;5.922;2022-07-04T09:39:13;102028.31;;;22.05;100.00
57568;BME280;43403;51.948;5.922;2022-07-04T09:41:59;102032.88;;;21.83;100.00
57568;BME280;43403;51.948;5.922;2022-07-04T09:47:23;102022.34;;;22.24;100.00
57568;BME280;43403;51.948;5.922;2022-07-04T09:50:04;102022.00;;;22.69;100.00
57568;BME280;43403;51.948;5.922;2022-07-04T09:52:31;102026.88;;;23.00;100.00
57568;BME280;43403;51.948;5.922;2022-07-04T09:55:02;102023.22;;;23.08;100.00
57568;BME280;43403;51.948;5.922;2022-07-04T09:57:31;102020.06;;;23.53;100.00
57568;BME280;43403;51.948;5.922;2022-07-04T10:00:21;102026.22;;;23.60;100.00
57568;BME280;43403;51.948;5.922;2022-07-04T10:02:49;102019.88;;;23.61;100.00
57568;BME280;43403;51.948;5.922;2022-07-04T10:05:27;102016.50;;;23.32;99.68
57568;BME280;43403;51.948;5.922;2022-07-04T10:07:57;102010.38;;;23.72;98.54
57568;BME280;43403;51.948;5.922;2022-07-04T10:12:55;102010.94;;;23.34;100.00
57568;BME280;43403;51.948;5.922;2022-07-04T10:15:22;102012.19;;;23.38;100.00
57568;BME280;43403;51.948;5.922;2022-07-04T10:17:49;102007.84;;;23.30;100.00
57568;BME280;43403;51.948;5.922;2022-07-04T10:20:15;102002.69;;;23.28;100.00
57568;BME280;43403;51.948;5.922;2022-07-04T10:22:42;102020.03;;;23.46;100.00
57568;BME280;43403;51.948;5.922;2022-07-04T10:25:09;102001.50;;;23.58;98.09
57568;BME280;43403;51.948;5.922;2022-07-04T10:27:36;102005.84;;;23.59;98.42
57568;BME280;43403;51.948;5.922;2022-07-04T10:30:05;102003.16;;;23.45;96.90
57568;BME280;43403;51.948;5.922;2022-07-04T10:32:33;102002.72;;;23.35;99.35
57568;BME280;43403;51.948;5.922;2022-07-04T10:35:00;102007.22;;;23.21;100.00
57568;BME280;43403;51.948;5.922;2022-07-04T10:37:59;101999.00;;;23.23;99.55
57568;BME280;43403;51.948;5.922;2022-07-04T10:40:44;102005.38;;;23.28;99.27
57568;BME280;43403;51.948;5.922;2022-07-04T10:49:16;101997.44;;;23.00;99.11
57568;BME280;43403;51.948;5.922;2022-07-04T10:51:47;102000.47;;;22.84;98.57
57568;BME280;43403;51.948;5.922;2022-07-04T11:05:09;101997.81;;;23.65;97.62
57568;BME280;43403;51.948;5.922;2022-07-04T11:18:11;101981.78;;;24.77;88.90
57568;BME280;43403;51.948;5.922;2022-07-04T11:20:42;101982.34;;;24.93;86.37
57568;BME280;43403;51.948;5.922;2022-07-04T11:23:11;101973.16;;;25.14;85.71
57568;BME280;43403;51.948;5.922;2022-07-04T11:25:39;101977.94;;;25.12;85.64
57568;BME280;43403;51.948;5.922;2022-07-04T11:31:05;101971.75;;;25.11;87.61
57568;BME280;43403;51.948;5.922;2022-07-04T11:33:34;101966.28;;;25.24;84.18
57568;BME280;43403;51.948;5.922;2022-07-04T11:36:08;101968.59;;;25.53;84.38
57568;BME280;43403;51.948;5.922;2022-07-04T11:38:58;101966.72;;;25.78;86.32
57568;BME280;43403;51.948;5.922;2022-07-04T11:41:29;101957.81;;;26.03;78.66
57568;BME280;43403;51.948;5.922;2022-07-04T11:44:17;101959.94;;;26.38;80.21
57568;BME280;43403;51.948;5.922;2022-07-04T11:47:19;101953.97;;;26.17;77.25
57568;BME280;43403;51.948;5.922;2022-07-04T11:52:14;101963.75;;;26.30;79.80
57568;BME280;43403;51.948;5.922;2022-07-04T11:54:45;101960.84;;;26.50;82.16
57568;BME280;43403;51.948;5.922;2022-07-04T11:57:23;101959.34;;;26.54;79.78
57568;BME280;43403;51.948;5.922;2022-07-04T12:00:01;101960.03;;;26.68;78.64
57568;BME280;43403;51.948;5.922;2022-07-04T12:02:29;101953.16;;;27.02;77.89
57568;BME280;43403;51.948;5.922;2022-07-04T12:04:56;101954.28;;;26.95;80.34
57568;BME280;43403;51.948;5.922;2022-07-04T12:07:27;101953.03;;;26.97;77.85
57568;BME280;43403;51.948;5.922;2022-07-04T12:09:55;101958.00;;;26.63;75.16
57568;BME280;43403;51.948;5.922;2022-07-04T12:12:22;101940.88;;;26.76;77.22
57568;BME280;43403;51.948;5.922;2022-07-04T12:15:05;101937.16;;;26.89;78.37
57568;BME280;43403;51.948;5.922;2022-07-04T12:17:36;101950.81;;;27.06;79.73
57568;BME280;43403;51.948;5.922;2022-07-04T12:20:16;101935.47;;;27.07;73.17
57568;BME280;43403;51.948;5.922;2022-07-04T12:22:51;101932.34;;;26.79;74.70
57568;BME280;43403;51.948;5.922;2022-07-04T12:25:28;101927.13;;;26.96;74.26
57568;BME280;43403;51.948;5.922;2022-07-04T12:28:09;101929.34;;;26.88;77.35
57568;BME280;43403;51.948;5.922;2022-07-04T12:30:38;101936.72;;;26.92;78.73
57568;BME280;43403;51.948;5.922;2022-07-04T12:33:09;101937.28;;;26.82;76.19
57568;BME280;43403;51.948;5.922;2022-07-04T12:38:15;101935.13;;;26.73;74.20
57568;BME280;43403;51.948;5.922;2022-07-04T12:43:25;101927.22;;;26.59;74.99
57568;BME280;43403;51.948;5.922;2022-07-04T12:45:54;101926.47;;;26.34;75.60
57568;BME280;43403;51.948;5.922;2022-07-04T12:48:28;101936.34;;;26.21;74.75
57568;BME280;43403;51.948;5.922;2022-07-04T12:51:11;101935.66;;;26.26;76.36
57568;BME280;43403;51.948;5.922;2022-07-04T12:53:38;101931.47;;;26.67;79.25
57568;BME280;43403;51.948;5.922;2022-07-04T12:56:07;101922.50;;;27.03;75.20
57568;BME280;43403;51.948;5.922;2022-07-04T12:58:34;101928.09;;;27.02;72.82
57568;BME280;43403;51.948;5.922;2022-07-04T13:01:02;101934.00;;;27.22;73.32
57568;BME280;43403;51.948;5.922;2022-07-04T13:03:29;101929.66;;;27.21;69.97
57568;BME280;43403;51.948;5.922;2022-07-04T13:05:55;101932.94;;;27.12;69.00
57568;BME280;43403;51.948;5.922;2022-07-04T13:08:23;101921.94;;;27.13;68.35
57568;BME280;43403;51.948;5.922;2022-07-04T13:10:50;101926.31;;;27.26;69.53
57568;BME280;43403;51.948;5.922;2022-07-04T13:13:37;101926.38;;;27.19;67.48
57568;BME280;43403;51.948;5.922;2022-07-04T13:16:04;101927.19;;;27.62;70.67
57568;BME280;43403;51.948;5.922;2022-07-04T13:18:30;101928.59;;;27.88;70.48
57568;BME280;43403;51.948;5.922;2022-07-04T13:20:57;101917.00;;;27.88;67.71
57568;BME280;43403;51.948;5.922;2022-07-04T13:23:23;101929.41;;;28.00;68.48
57568;BME280;43403;51.948;5.922;2022-07-04T13:25:51;101915.69;;;28.02;65.45
57568;BME280;43403;51.948;5.922;2022-07-04T13:28:17;101920.28;;;28.02;67.88
57568;BME280;43403;51.948;5.922;2022-07-04T13:30:44;101925.72;;;28.30;70.58
57568;BME280;43403;51.948;5.922;2022-07-04T13:33:10;101923.88;;;28.19;67.27
57568;BME280;43403;51.948;5.922;2022-07-04T13:35:37;101916.03;;;28.17;66.83